createdAt,value
2022-10-25T00:00:49.300Z,95786.88
2022-10-25T00:03:18.620Z,95778.78
2022-10-25T00:05:46.457Z,95791.81
2022-10-25T00:08:14.309Z,95789.78
2022-10-25T00:10:42.158Z,95789.72
2022-10-25T00:13:10.008Z,95755.34
2022-10-25T00:15:37.828Z,95790.22
2022-10-25T00:18:05.840Z,95787.84
2022-10-25T00:20:37.088Z,95783.06
2022-10-25T00:23:04.932Z,95657.81
2022-10-25T00:25:32.763Z,95728.91
2022-10-25T00:28:00.660Z,95787.28
2022-10-25T00:30:28.630Z,95791.88
2022-10-25T00:32:56.466Z,95789.50
2022-10-25T00:35:24.585Z,95789.97
2022-10-25T00:37:53.802Z,95781.59
2022-10-25T00:40:21.699Z,95778.22
2022-10-25T00:42:49.715Z,95776.59
2022-10-25T00:45:23.091Z,95768.38
2022-10-25T00:47:57.486Z,95772.88
2022-10-25T00:50:47.046Z,95713.63
2022-10-25T00:53:21.561Z,95760.06
2022-10-25T00:55:55.418Z,95765.97
2022-10-25T00:58:29.222Z,95770.69
2022-10-25T01:00:57.737Z,95766.06
2022-10-25T01:03:26.303Z,95745.09
2022-10-25T01:05:54.944Z,95759.81
2022-10-25T01:08:25.131Z,95761.53
2022-10-25T01:10:52.953Z,95750.75
2022-10-25T01:13:20.881Z,95736.81
2022-10-25T01:15:58.084Z,95751.06
2022-10-25T01:18:35.143Z,95704.38
2022-10-25T01:21:23.464Z,95740.59
2022-10-25T01:24:16.263Z,95762.63
2022-10-25T01:27:11.757Z,95761.03
2022-10-25T01:30:04.736Z,95762.34
2022-10-25T01:32:41.351Z,95758.09
2022-10-25T01:35:17.356Z,95762.41
2022-10-25T01:38:07.344Z,95750.22
2022-10-25T01:40:44.061Z,95752.50
2022-10-25T01:43:21.184Z,95746.59
2022-10-25T01:45:58.357Z,95744.91
2022-10-25T01:48:32.792Z,95749.69
2022-10-25T01:51:06.972Z,95744.78
2022-10-25T01:53:34.855Z,95749.38
2022-10-25T01:56:06.600Z,95748.44
2022-10-25T01:58:43.911Z,95744.31
2022-10-25T02:01:24.842Z,95745.88
2022-10-25T02:04:01.031Z,95749.56
2022-10-25T02:06:35.822Z,95743.53
2022-10-25T02:09:07.905Z,95747.81
2022-10-25T02:11:36.785Z,95736.69
2022-10-25T02:14:16.252Z,95742.91
2022-10-25T02:16:50.518Z,95730.41
2022-10-25T02:19:24.750Z,95743.38
2022-10-25T02:21:53.973Z,95733.56
2022-10-25T02:24:24.168Z,95730.72
2022-10-25T02:26:53.731Z,95721.84
2022-10-25T02:29:23.887Z,95722.63
2022-10-25T02:31:51.938Z,95731.81
2022-10-25T02:34:21.467Z,95742.31
2022-10-25T02:36:49.920Z,95731.66
2022-10-25T02:39:18.672Z,95737.22
2022-10-25T02:41:46.518Z,95749.13
2022-10-25T02:44:14.720Z,95740.56
2022-10-25T02:46:42.604Z,95740.72
2022-10-25T02:49:10.504Z,95739.44
2022-10-25T02:51:39.977Z,95730.25
2022-10-25T02:54:07.854Z,95744.41
2022-10-25T02:56:35.692Z,95740.06
2022-10-25T02:59:03.544Z,95740.53
2022-10-25T03:01:31.514Z,95735.16
2022-10-25T03:03:59.539Z,95724.84
2022-10-25T03:06:27.339Z,95728.81
2022-10-25T03:08:56.528Z,95733.88
2022-10-25T03:11:24.380Z,95738.31
2022-10-25T03:13:52.211Z,95726.06
2022-10-25T03:16:20.059Z,95740.81
2022-10-25T03:18:48.033Z,95724.50
2022-10-25T03:21:15.866Z,95743.22
2022-10-25T03:23:43.657Z,95735.47
2022-10-25T03:26:12.880Z,95741.16
2022-10-25T03:28:40.739Z,95734.50
2022-10-25T03:31:13.161Z,95738.47
2022-10-25T03:33:41.695Z,95733.38
2022-10-25T03:36:10.091Z,95737.66
2022-10-25T03:38:38.100Z,95734.81
2022-10-25T03:41:06.261Z,95720.53
2022-10-25T03:43:35.462Z,95732.53
2022-10-25T03:46:03.426Z,95730.03
2022-10-25T03:48:31.311Z,95733.03
2022-10-25T03:50:59.248Z,95723.19
2022-10-25T03:53:27.088Z,95720.66
2022-10-25T03:55:54.924Z,95724.84
2022-10-25T03:58:22.795Z,95731.16
2022-10-25T04:00:52.025Z,95727.69
2022-10-25T04:03:19.927Z,95725.78
2022-10-25T04:05:47.752Z,95726.91
2022-10-25T04:08:15.637Z,95725.94
2022-10-25T04:10:43.483Z,95722.59
2022-10-25T04:13:11.321Z,95727.50
2022-10-25T04:15:39.245Z,95720.34
2022-10-25T04:18:08.606Z,95720.97
2022-10-25T04:20:36.464Z,95726.06
2022-10-25T04:23:04.320Z,95717.53
2022-10-25T04:25:32.369Z,95737.59
2022-10-25T04:28:00.620Z,95735.84
2022-10-25T04:30:28.633Z,95738.03
2022-10-25T04:32:58.296Z,95743.25
2022-10-25T04:35:27.507Z,95748.31
2022-10-25T04:37:58.317Z,95738.31
2022-10-25T04:40:26.457Z,95748.50
2022-10-25T04:42:54.319Z,95732.81
2022-10-25T04:45:22.158Z,95739.47
2022-10-25T04:47:49.975Z,95742.16
2022-10-25T04:50:18.002Z,95746.66
2022-10-25T04:52:47.609Z,95746.66
2022-10-25T04:55:15.794Z,95749.97
2022-10-25T04:57:44.684Z,95743.31
2022-10-25T05:00:13.496Z,95748.06
2022-10-25T05:02:41.354Z,95744.72
2022-10-25T05:05:09.976Z,95741.75
2022-10-25T05:07:37.824Z,95671.69
2022-10-25T05:10:07.672Z,95747.84
2022-10-25T05:12:35.527Z,95751.66
2022-10-25T05:15:03.414Z,95690.28
2022-10-25T05:17:31.324Z,95746.09
2022-10-25T05:19:59.319Z,95741.03
2022-10-25T05:22:29.256Z,95735.91
2022-10-25T05:24:57.116Z,95744.34
2022-10-25T05:27:26.465Z,95735.69
2022-10-25T05:29:54.325Z,95764.03
2022-10-25T05:32:22.218Z,95761.81
2022-10-25T05:34:50.051Z,95757.41
2022-10-25T05:37:17.922Z,95773.31
2022-10-25T05:39:45.853Z,95772.88
2022-10-25T05:42:13.676Z,95786.19
2022-10-25T05:44:42.884Z,95786.53
2022-10-25T05:47:10.794Z,95791.59
2022-10-25T05:49:42.337Z,95797.44
2022-10-25T05:52:12.363Z,95797.50
2022-10-25T05:54:40.251Z,95808.66
2022-10-25T05:57:08.085Z,95810.25
2022-10-25T05:59:36.015Z,95806.38
2022-10-25T06:02:05.353Z,95811.03
2022-10-25T06:04:33.341Z,95812.78
2022-10-25T06:07:01.232Z,95818.78
2022-10-25T06:09:29.168Z,95806.38
2022-10-25T06:11:57.021Z,95811.75
2022-10-25T06:14:24.856Z,95810.19
2022-10-25T06:16:52.712Z,95810.34
2022-10-25T06:19:21.961Z,95806.22
2022-10-25T06:21:49.893Z,95804.41
2022-10-25T06:24:17.768Z,95805.38
2022-10-25T06:26:45.642Z,95807.94
2022-10-25T06:29:13.681Z,95805.25
2022-10-25T06:31:41.694Z,95795.75
2022-10-25T06:34:09.644Z,95790.66
2022-10-25T06:36:39.024Z,95781.88
2022-10-25T06:39:07.165Z,95826.50
2022-10-25T06:41:37.686Z,95765.34
2022-10-25T06:44:07.197Z,95827.50
2022-10-25T06:46:52.602Z,95819.69
2022-10-25T06:49:25.303Z,95820.56
2022-10-25T06:51:54.782Z,95818.91
2022-10-25T06:54:22.646Z,95779.66
2022-10-25T06:56:50.622Z,95824.16
2022-10-25T06:59:20.389Z,95809.09
2022-10-25T07:01:50.080Z,95815.66
2022-10-25T07:04:18.185Z,95777.28
2022-10-25T07:06:48.806Z,95761.25
2022-10-25T07:09:20.922Z,95779.03
2022-10-25T07:11:48.767Z,95812.06
2022-10-25T07:14:16.776Z,95804.91
2022-10-25T07:16:44.717Z,95764.38
2022-10-25T07:19:12.763Z,95802.91
2022-10-25T07:21:40.615Z,95787.06
2022-10-25T07:24:11.140Z,95782.91
2022-10-25T07:26:40.918Z,95786.66
2022-10-25T07:29:09.163Z,95749.03
2022-10-25T07:31:39.672Z,95785.34
2022-10-25T07:34:07.915Z,95782.63
2022-10-25T07:36:35.782Z,95786.88
2022-10-25T07:39:03.915Z,95782.59
2022-10-25T07:41:31.837Z,95791.22
2022-10-25T07:44:01.039Z,95789.00
2022-10-25T07:46:28.933Z,95791.59
2022-10-25T07:48:56.819Z,95790.88
2022-10-25T07:51:25.068Z,95779.84
2022-10-25T07:53:54.449Z,95759.88
2022-10-25T07:56:23.681Z,95773.13
2022-10-25T07:58:52.275Z,95770.38
2022-10-25T08:01:23.806Z,95769.88
2022-10-25T08:03:52.536Z,95772.28
2022-10-25T08:06:21.781Z,95761.34
2022-10-25T08:08:50.146Z,95751.94
2022-10-25T08:11:18.925Z,95769.97
2022-10-25T08:13:49.850Z,95731.88
2022-10-25T08:16:18.367Z,95777.84
2022-10-25T08:18:47.603Z,95771.59
2022-10-25T08:21:15.556Z,95766.09
2022-10-25T08:23:43.451Z,95760.63
2022-10-25T08:26:11.429Z,95757.47
2022-10-25T08:28:39.265Z,95764.91
2022-10-25T08:31:07.287Z,95761.63
2022-10-25T08:33:35.343Z,95759.78
2022-10-25T08:36:04.812Z,95750.81
2022-10-25T08:38:32.664Z,95755.13
2022-10-25T08:41:10.205Z,95744.06
2022-10-25T08:44:08.851Z,95736.63
2022-10-25T08:46:41.942Z,95742.47
2022-10-25T08:49:20.323Z,95736.16
2022-10-25T08:51:51.758Z,95734.53
2022-10-25T08:54:31.873Z,95699.91
2022-10-25T08:57:15.446Z,95717.44
2022-10-25T08:59:46.744Z,95717.06
2022-10-25T09:02:21.064Z,95724.66
2022-10-25T09:04:49.117Z,95725.63
2022-10-25T09:07:41.969Z,95718.78
2022-10-25T09:10:19.345Z,95713.06
2022-10-25T09:12:55.285Z,95726.56
2022-10-25T09:15:43.252Z,95724.09
2022-10-25T09:18:16.926Z,95710.75
2022-10-25T09:20:50.824Z,95726.50
2022-10-25T09:23:28.011Z,95724.09
2022-10-25T09:26:04.100Z,95720.56
2022-10-25T09:28:50.596Z,95719.16
2022-10-25T09:31:23.360Z,95714.44
2022-10-25T09:33:58.890Z,95717.13
2022-10-25T09:36:33.059Z,95702.00
2022-10-25T09:39:06.884Z,95707.34
2022-10-25T09:41:41.221Z,95697.28
2022-10-25T09:44:16.829Z,95697.09
2022-10-25T09:46:49.129Z,95684.78
2022-10-25T09:49:26.119Z,95681.88
2022-10-25T09:52:00.731Z,95683.59
2022-10-25T09:54:34.007Z,95638.00
2022-10-25T09:57:02.114Z,95677.44
2022-10-25T09:59:30.089Z,95678.47
2022-10-25T10:01:58.094Z,95672.19
2022-10-25T10:04:34.193Z,95656.47
2022-10-25T10:07:07.484Z,95672.47
2022-10-25T10:09:43.356Z,95667.22
2022-10-25T10:12:20.672Z,95667.34
2022-10-25T10:14:55.069Z,95628.44
2022-10-25T10:17:24.299Z,95651.16
2022-10-25T10:20:11.295Z,95647.25
2022-10-25T10:22:45.622Z,95648.81
2022-10-25T10:25:20.860Z,95641.94
2022-10-25T10:27:50.476Z,95636.06
2022-10-25T10:30:24.895Z,95633.44
2022-10-25T10:32:58.756Z,95635.81
2022-10-25T10:35:30.899Z,95629.97
2022-10-25T10:38:25.029Z,95621.44
2022-10-25T10:40:57.635Z,95623.13
2022-10-25T10:43:30.054Z,95577.25
2022-10-25T10:46:03.939Z,95605.22
2022-10-25T10:48:41.888Z,95594.19
2022-10-25T10:51:31.673Z,95595.31
2022-10-25T10:54:12.676Z,95593.28
2022-10-25T10:56:41.953Z,95590.34
2022-10-25T10:59:29.359Z,95607.47
2022-10-25T11:01:57.593Z,95585.00
2022-10-25T11:04:26.389Z,95586.56
2022-10-25T11:06:54.309Z,95581.28
2022-10-25T11:09:25.437Z,95571.22
2022-10-25T11:12:15.484Z,95575.31
2022-10-25T11:14:43.939Z,95572.88
2022-10-25T11:17:16.995Z,95573.25
2022-10-25T11:19:54.467Z,95573.63
2022-10-25T11:22:34.744Z,95552.66
2022-10-25T11:25:17.394Z,95552.69
2022-10-25T11:28:06.398Z,95555.06
2022-10-25T11:30:41.192Z,95550.25
2022-10-25T11:33:34.854Z,95544.78
2022-10-25T11:36:23.975Z,95540.31
2022-10-25T11:39:15.108Z,95528.72
2022-10-25T11:41:48.717Z,95537.88
2022-10-25T11:44:41.697Z,95526.88
2022-10-25T11:47:19.321Z,95525.13
2022-10-25T11:49:59.638Z,95528.56
2022-10-25T11:52:54.450Z,95523.09
2022-10-25T11:55:34.257Z,95505.47
2022-10-25T11:58:11.382Z,95516.66
2022-10-25T12:00:51.259Z,95486.44
2022-10-25T12:03:32.485Z,95508.03
2022-10-25T12:06:07.041Z,95501.41
2022-10-25T12:08:43.019Z,95504.16
2022-10-25T12:11:18.726Z,95498.41
2022-10-25T12:13:51.626Z,95500.91
2022-10-25T12:16:23.087Z,95499.53
2022-10-25T12:18:53.714Z,95492.06
2022-10-25T12:21:27.169Z,95496.44
2022-10-25T12:23:56.186Z,95440.97
2022-10-25T12:26:31.075Z,95495.06
2022-10-25T12:29:01.747Z,95491.50
2022-10-25T12:31:37.779Z,95484.34
2022-10-25T12:34:10.216Z,95491.91
2022-10-25T12:36:41.738Z,95486.44
2022-10-25T12:39:17.615Z,95489.09
2022-10-25T12:41:49.936Z,95488.31
2022-10-25T12:44:33.868Z,95491.56
2022-10-25T12:47:25.570Z,95488.50
2022-10-25T12:50:14.706Z,95497.66
2022-10-25T12:53:00.660Z,95499.00
2022-10-25T12:55:42.005Z,95476.16
2022-10-25T12:58:28.093Z,95501.94
2022-10-25T13:01:11.215Z,95500.34
2022-10-25T13:03:59.552Z,95492.97
2022-10-25T13:06:34.653Z,95496.22
2022-10-25T13:09:06.768Z,95492.88
2022-10-25T13:11:38.321Z,95491.91
2022-10-25T13:14:14.011Z,95487.50
2022-10-25T13:16:41.843Z,95485.44
2022-10-25T13:19:49.889Z,95489.22
2022-10-25T13:22:46.824Z,95488.81
2022-10-25T13:25:19.638Z,95488.44
2022-10-25T13:28:21.361Z,95487.16
2022-10-25T13:30:49.264Z,95486.47
2022-10-25T13:33:33.763Z,95486.34
2022-10-25T13:36:05.951Z,95485.09
2022-10-25T13:38:39.644Z,95483.63
2022-10-25T13:41:13.259Z,95475.50
2022-10-25T13:44:02.220Z,95479.50
2022-10-25T13:46:36.367Z,95479.13
2022-10-25T13:49:23.410Z,95484.66
2022-10-25T13:51:56.152Z,95476.09
2022-10-25T13:54:24.804Z,95487.06
2022-10-25T13:56:54.600Z,95479.28
2022-10-25T13:59:38.612Z,95481.16
2022-10-25T14:02:18.443Z,95477.25
2022-10-25T14:04:46.671Z,95475.75
2022-10-25T14:07:48.914Z,95478.59
2022-10-25T14:10:36.082Z,95466.28
2022-10-25T14:13:17.315Z,95471.66
2022-10-25T14:15:53.411Z,95474.63
2022-10-25T14:18:24.138Z,95474.84
2022-10-25T14:20:55.449Z,95470.53
2022-10-25T14:23:29.881Z,95462.97
2022-10-25T14:25:59.521Z,95465.84
2022-10-25T14:28:29.253Z,95462.94
2022-10-25T14:30:59.242Z,95444.81
2022-10-25T14:33:31.328Z,95464.00
2022-10-25T14:36:09.906Z,95458.19
2022-10-25T14:38:52.352Z,95460.72
2022-10-25T14:41:25.747Z,95448.00
2022-10-25T14:43:54.309Z,95458.22
2022-10-25T14:46:24.157Z,95425.22
2022-10-25T14:48:56.057Z,95472.19
2022-10-25T14:51:28.069Z,95464.28
2022-10-25T14:54:01.348Z,95463.19
2022-10-25T14:56:32.917Z,95455.91
2022-10-25T14:59:02.273Z,95455.91
2022-10-25T15:01:30.540Z,95455.34
2022-10-25T15:04:01.254Z,95463.97
2022-10-25T15:06:32.418Z,95455.91
2022-10-25T15:09:40.800Z,95460.84
2022-10-25T15:12:08.355Z,95435.41
2022-10-25T15:14:36.815Z,95450.72
2022-10-25T15:17:06.262Z,95457.41
2022-10-25T15:19:34.173Z,95456.25
2022-10-25T15:22:10.784Z,95458.66
2022-10-25T15:24:48.743Z,95445.41
2022-10-25T15:27:27.902Z,95461.25
2022-10-25T15:29:55.869Z,95464.16
2022-10-25T15:32:25.439Z,95463.00
2022-10-25T15:34:55.648Z,95470.13
2022-10-25T15:37:25.131Z,95442.09
2022-10-25T15:39:55.749Z,95467.63
2022-10-25T15:42:26.411Z,95479.19
2022-10-25T15:44:54.310Z,95473.50
2022-10-25T15:47:31.741Z,95478.47
2022-10-25T15:50:00.671Z,95482.53
2022-10-25T15:52:29.032Z,95486.16
2022-10-25T15:54:58.245Z,95493.56
2022-10-25T15:57:27.355Z,95499.03
2022-10-25T15:59:55.349Z,95498.63
2022-10-25T16:02:27.172Z,95479.91
2022-10-25T16:04:55.240Z,95482.22
2022-10-25T16:07:23.223Z,95506.56
2022-10-25T16:09:51.060Z,95481.75
2022-10-25T16:12:31.587Z,95490.78
2022-10-25T16:14:59.508Z,95496.72
2022-10-25T16:17:27.332Z,95501.09
2022-10-25T16:19:55.155Z,95493.66
2022-10-25T16:22:22.996Z,95494.94
2022-10-25T16:24:50.836Z,95495.72
2022-10-25T16:27:18.800Z,95502.84
2022-10-25T16:29:48.122Z,95505.22
2022-10-25T16:32:18.542Z,95508.38
2022-10-25T16:34:46.383Z,95506.09
2022-10-25T16:37:14.205Z,95508.47
2022-10-25T16:39:42.064Z,95516.34
2022-10-25T16:42:28.569Z,95521.09
2022-10-25T16:44:58.421Z,95525.03
2022-10-25T16:47:26.623Z,95518.00
2022-10-25T16:49:54.675Z,95525.09
2022-10-25T16:52:23.102Z,95524.75
2022-10-25T16:54:50.936Z,95534.16
2022-10-25T16:57:18.852Z,95533.75
2022-10-25T16:59:46.723Z,95536.13
2022-10-25T17:02:21.334Z,95518.47
2022-10-25T17:04:50.261Z,95524.72
2022-10-25T17:07:18.748Z,95540.78
2022-10-25T17:09:46.676Z,95536.50
2022-10-25T17:12:14.524Z,95533.38
2022-10-25T17:14:42.421Z,95523.56
2022-10-25T17:17:11.009Z,95538.06
2022-10-25T17:19:40.279Z,95522.75
2022-10-25T17:22:08.922Z,95540.81
2022-10-25T17:24:37.610Z,95531.81
2022-10-25T17:27:06.241Z,95535.34
2022-10-25T17:29:34.275Z,95530.25
2022-10-25T17:32:02.173Z,95528.34
2022-10-25T17:34:32.114Z,95532.28
2022-10-25T17:37:02.300Z,95527.97
2022-10-25T17:39:30.598Z,95536.63
2022-10-25T17:41:58.473Z,95522.91
2022-10-25T17:44:26.360Z,95526.81
2022-10-25T17:46:55.494Z,95531.16
2022-10-25T17:49:25.164Z,95530.75
2022-10-25T17:51:53.035Z,95538.59
2022-10-25T17:54:22.436Z,95541.75
2022-10-25T17:56:50.359Z,95541.75
2022-10-25T17:59:18.242Z,95545.69
2022-10-25T18:01:46.202Z,95393.63
2022-10-25T18:04:14.121Z,95555.06
2022-10-25T18:06:42.059Z,95552.28
2022-10-25T18:09:10.874Z,95556.59
2022-10-25T18:11:40.219Z,95566.75
2022-10-25T18:14:08.101Z,95565.56
2022-10-25T18:16:35.940Z,95563.09
2022-10-25T18:19:05.830Z,95575.56
2022-10-25T18:21:34.740Z,95577.44
2022-10-25T18:24:04.901Z,95576.63
2022-10-25T18:26:33.801Z,95578.50
2022-10-25T18:29:03.070Z,95589.00
2022-10-25T18:31:31.097Z,95579.44
2022-10-25T18:34:03.381Z,95591.22
2022-10-25T18:36:32.103Z,95573.91
2022-10-25T18:39:00.025Z,95533.47
2022-10-25T18:41:30.149Z,95591.13
2022-10-25T18:43:58.805Z,95578.16
2022-10-25T18:46:30.739Z,95578.94
2022-10-25T18:48:58.835Z,95573.47
2022-10-25T18:51:28.911Z,95576.97
2022-10-25T18:53:57.817Z,95586.41
2022-10-25T18:56:26.212Z,95581.28
2022-10-25T18:58:56.763Z,95586.31
2022-10-25T19:01:27.921Z,95600.34
2022-10-25T19:03:58.199Z,95594.09
2022-10-25T19:06:26.416Z,95571.25
2022-10-25T19:08:54.608Z,95589.72
2022-10-25T19:11:22.511Z,95590.91
2022-10-25T19:13:54.178Z,95595.50
2022-10-25T19:16:22.226Z,95444.25
2022-10-25T19:18:50.135Z,95611.47
2022-10-25T19:21:19.695Z,95468.06
2022-10-25T19:23:48.435Z,95606.25
2022-10-25T19:26:19.458Z,95615.22
2022-10-25T19:28:47.672Z,95606.91
2022-10-25T19:31:17.916Z,95603.72
2022-10-25T19:33:47.044Z,95609.97
2022-10-25T19:36:15.107Z,95616.97
2022-10-25T19:38:45.294Z,95618.91
2022-10-25T19:41:17.135Z,95631.69
2022-10-25T19:43:45.116Z,95626.13
2022-10-25T19:46:14.089Z,95624.25
2022-10-25T19:48:42.045Z,95637.03
2022-10-25T19:51:12.097Z,95640.38
2022-10-25T19:53:39.995Z,95636.06
2022-10-25T19:56:11.421Z,95643.13
2022-10-25T19:58:39.552Z,95647.06
2022-10-25T20:01:10.229Z,95652.50
2022-10-25T20:03:39.591Z,95660.19
2022-10-25T20:06:09.983Z,95658.47
2022-10-25T20:08:39.875Z,95655.63
2022-10-25T20:11:11.596Z,95644.28
2022-10-25T20:13:39.720Z,95654.41
2022-10-25T20:16:08.699Z,95659.75
2022-10-25T20:18:38.693Z,95660.50
2022-10-25T20:21:08.859Z,95662.28
2022-10-25T20:23:37.020Z,95660.31
2022-10-25T20:26:14.335Z,95666.56
2022-10-25T20:28:42.527Z,95659.19
2022-10-25T20:31:11.258Z,95664.63
2022-10-25T20:33:40.267Z,95665.84
2022-10-25T20:36:11.513Z,95669.00
2022-10-25T20:38:39.719Z,95670.56
2022-10-25T20:41:10.270Z,95680.69
2022-10-25T20:43:40.346Z,95680.69
2022-10-25T20:46:09.400Z,95683.00
2022-10-25T20:48:37.680Z,95679.06
2022-10-25T20:51:07.811Z,95682.13
2022-10-25T20:53:36.963Z,95673.09
2022-10-25T20:56:05.268Z,95683.00
2022-10-25T20:58:34.668Z,95682.22
2022-10-25T21:01:04.192Z,95679.00
2022-10-25T21:03:33.191Z,95672.03
2022-10-25T21:06:03.489Z,95674.34
2022-10-25T21:08:32.204Z,95686.75
2022-10-25T21:11:01.992Z,95678.97
2022-10-25T21:13:32.374Z,95680.91
2022-10-25T21:16:00.547Z,95686.78
2022-10-25T21:18:30.160Z,95684.00
2022-10-25T21:21:01.747Z,95683.56
2022-10-25T21:23:29.624Z,95690.59
2022-10-25T21:26:00.738Z,95687.47
2022-10-25T21:28:32.408Z,95688.91
2022-10-25T21:31:02.117Z,95688.91
2022-10-25T21:33:31.334Z,95693.91
2022-10-25T21:36:03.776Z,95698.41
2022-10-25T21:38:31.684Z,95692.47
2022-10-25T21:41:06.748Z,95700.66
2022-10-25T21:43:34.625Z,95512.84
2022-10-25T21:46:05.930Z,95060.63
2022-10-25T21:48:35.620Z,95703.13
2022-10-25T21:51:03.471Z,95702.34
2022-10-25T21:53:31.628Z,95703.50
2022-10-25T21:56:11.530Z,95673.28
2022-10-25T21:58:39.853Z,95692.13
2022-10-25T22:01:09.324Z,95696.00
2022-10-25T22:03:38.901Z,95704.41
2022-10-25T22:06:07.776Z,95689.94
2022-10-25T22:08:35.841Z,95663.03
2022-10-25T22:11:06.955Z,95705.88
2022-10-25T22:13:35.217Z,95708.94
2022-10-25T22:16:05.651Z,95702.72
2022-10-25T22:18:34.048Z,95707.72
2022-10-25T22:21:05.941Z,95697.44
2022-10-25T22:23:34.476Z,95703.16
2022-10-25T22:26:03.593Z,95688.06
2022-10-25T22:28:33.331Z,95702.97
2022-10-25T22:31:06.515Z,95701.75
2022-10-25T22:33:34.962Z,95703.09
2022-10-25T22:36:05.991Z,95703.47
2022-10-25T22:38:34.326Z,95700.56
2022-10-25T22:41:03.702Z,95709.53
2022-10-25T22:43:32.221Z,95708.75
2022-10-25T22:46:02.271Z,95704.00
2022-10-25T22:48:34.001Z,95708.31
2022-10-25T22:51:02.321Z,95715.00
2022-10-25T22:53:31.681Z,95704.00
2022-10-25T22:56:01.852Z,95725.09
2022-10-25T22:58:32.465Z,95718.41
2022-10-25T23:03:36.986Z,95720.78
2022-10-25T23:06:06.140Z,95722.38
2022-10-25T23:08:35.544Z,95716.50
2022-10-25T23:11:05.836Z,95727.00
2022-10-25T23:13:36.322Z,95678.22
2022-10-25T23:16:05.000Z,95728.88
2022-10-25T23:18:33.381Z,95677.50
2022-10-25T23:21:03.169Z,95730.09
2022-10-25T23:23:38.120Z,95734.69
2022-10-25T23:28:39.700Z,95738.38
2022-10-25T23:31:09.343Z,95741.81
2022-10-25T23:33:37.414Z,95737.53
2022-10-25T23:36:10.226Z,95722.38
2022-10-25T23:38:39.458Z,95744.38
2022-10-25T23:41:07.645Z,95748.69
2022-10-25T23:43:35.651Z,95748.25
2022-10-25T23:46:03.612Z,95728.53
2022-10-25T23:48:31.970Z,95758.69
2022-10-25T23:53:34.999Z,95762.63
2022-10-25T23:56:06.100Z,95759.91
2022-10-25T23:58:33.999Z,95769.22
